createdAt,value
2022-11-16T00:01:12.033Z,17.38
2022-11-16T00:03:38.378Z,23.35
2022-11-16T00:06:05.386Z,17.83
2022-11-16T00:11:04.983Z,17.48
2022-11-16T00:13:32.079Z,19.67
2022-11-16T00:15:58.342Z,15.40
2022-11-16T00:18:24.756Z,19.42
2022-11-16T00:20:51.139Z,14.30
2022-11-16T00:23:17.708Z,16.85
2022-11-16T00:25:44.274Z,14.52
2022-11-16T00:28:10.938Z,16.52
2022-11-16T00:30:37.404Z,16.23
2022-11-16T00:33:04.267Z,16.33
2022-11-16T00:35:30.547Z,16.15
2022-11-16T00:37:56.769Z,17.33
2022-11-16T00:40:23.321Z,16.45
2022-11-16T00:42:49.637Z,17.35
2022-11-16T00:45:15.903Z,16.85
2022-11-16T00:47:42.125Z,16.80
2022-11-16T00:50:08.555Z,22.08
2022-11-16T00:52:34.835Z,21.10
2022-11-16T00:55:01.085Z,16.92
2022-11-16T00:57:27.315Z,21.30
2022-11-16T00:59:53.590Z,16.55
2022-11-16T01:02:19.821Z,21.65
2022-11-16T01:04:46.077Z,19.50
2022-11-16T01:07:12.387Z,21.48
2022-11-16T01:09:38.642Z,20.13
2022-11-16T01:12:10.881Z,18.80
2022-11-16T01:14:37.498Z,17.20
2022-11-16T01:17:04.285Z,18.33
2022-11-16T01:19:30.534Z,21.23
2022-11-16T01:21:56.810Z,20.38
2022-11-16T01:24:23.228Z,17.27
2022-11-16T01:26:49.492Z,19.67
2022-11-16T01:29:16.118Z,19.35
2022-11-16T01:31:42.353Z,21.40
2022-11-16T01:34:08.646Z,20.50
2022-11-16T01:36:36.652Z,22.92
2022-11-16T01:39:04.304Z,19.85
2022-11-16T01:41:30.571Z,24.58
2022-11-16T01:44:01.691Z,22.52
2022-11-16T01:46:28.220Z,25.25
2022-11-16T01:48:58.247Z,21.80
2022-11-16T01:51:24.688Z,19.77
2022-11-16T01:53:51.007Z,20.45
2022-11-16T01:56:17.373Z,18.60
2022-11-16T01:58:43.758Z,24.75
2022-11-16T02:01:10.030Z,19.20
2022-11-16T02:03:37.280Z,18.38
2022-11-16T02:06:22.444Z,23.92
2022-11-16T02:09:26.482Z,21.88
2022-11-16T02:11:56.919Z,22.20
2022-11-16T02:14:26.244Z,23.40
2022-11-16T02:17:03.012Z,21.52
2022-11-16T02:19:29.213Z,24.75
2022-11-16T02:22:03.480Z,24.15
2022-11-16T02:24:42.123Z,28.85
2022-11-16T02:27:08.333Z,25.65
2022-11-16T02:29:39.831Z,26.13
2022-11-16T02:32:12.116Z,22.23
2022-11-16T02:34:40.632Z,25.60
2022-11-16T02:37:09.240Z,23.67
2022-11-16T02:39:37.088Z,25.88
2022-11-16T02:42:04.028Z,25.83
2022-11-16T02:46:58.620Z,18.98
2022-11-16T02:49:25.566Z,21.50
2022-11-16T02:54:19.266Z,20.90
2022-11-16T02:56:50.372Z,21.80
2022-11-16T02:59:17.858Z,24.23
2022-11-16T03:01:47.963Z,20.20
2022-11-16T03:04:32.743Z,25.00
2022-11-16T03:07:01.924Z,24.13
2022-11-16T03:09:30.009Z,21.05
2022-11-16T03:11:59.304Z,19.33
2022-11-16T03:14:34.648Z,22.60
2022-11-16T03:17:02.186Z,20.42
2022-11-16T03:19:32.345Z,26.70
2022-11-16T03:22:05.085Z,20.73
2022-11-16T03:24:31.794Z,24.10
2022-11-16T03:27:05.442Z,23.00
2022-11-16T03:29:33.473Z,20.48
2022-11-16T03:32:04.586Z,21.77
2022-11-16T03:34:32.709Z,19.88
2022-11-16T03:37:00.295Z,22.35
2022-11-16T03:39:30.218Z,24.77
2022-11-16T03:41:57.147Z,20.85
2022-11-16T03:46:49.676Z,25.83
2022-11-16T03:49:15.944Z,21.67
2022-11-16T03:51:42.443Z,20.30
2022-11-16T03:54:08.661Z,26.70
2022-11-16T03:56:34.904Z,22.58
2022-11-16T03:59:01.152Z,22.70
2022-11-16T04:01:27.441Z,27.48
2022-11-16T04:03:53.772Z,21.35
2022-11-16T04:06:38.889Z,22.75
2022-11-16T04:09:23.613Z,26.88
2022-11-16T04:12:08.991Z,25.92
2022-11-16T04:14:53.727Z,21.98
2022-11-16T04:17:41.664Z,26.33
2022-11-16T04:20:28.068Z,20.98
2022-11-16T04:23:15.929Z,20.17
2022-11-16T04:25:42.870Z,23.40
2022-11-16T04:31:01.239Z,19.83
2022-11-16T04:33:47.139Z,19.95
2022-11-16T04:36:31.930Z,20.27
2022-11-16T04:38:58.222Z,21.92
2022-11-16T04:41:42.943Z,23.90
2022-11-16T04:44:09.603Z,21.70
2022-11-16T04:46:54.477Z,20.90
2022-11-16T04:49:20.718Z,23.40
2022-11-16T04:51:46.947Z,21.52
2022-11-16T04:54:13.202Z,21.30
2022-11-16T04:56:39.605Z,23.33
2022-11-16T04:59:05.821Z,23.73
2022-11-16T05:01:50.563Z,21.42
2022-11-16T05:04:16.845Z,23.25
2022-11-16T05:06:43.128Z,21.60
2022-11-16T05:09:09.442Z,19.80
2022-11-16T05:11:35.682Z,22.17
2022-11-16T05:14:02.444Z,26.38
2022-11-16T05:16:28.754Z,23.83
2022-11-16T05:19:13.696Z,24.17
2022-11-16T05:21:39.945Z,23.17
2022-11-16T05:24:24.726Z,23.30
2022-11-16T05:26:50.968Z,25.42
2022-11-16T05:29:17.230Z,29.25
2022-11-16T05:31:43.619Z,25.98
2022-11-16T05:34:10.202Z,30.65
2022-11-16T05:36:36.630Z,31.85
2022-11-16T05:39:03.268Z,32.40
2022-11-16T05:41:29.489Z,28.02
2022-11-16T05:43:56.039Z,25.50
2022-11-16T05:46:22.710Z,30.02
2022-11-16T05:48:49.043Z,28.17
2022-11-16T05:51:15.508Z,30.05
2022-11-16T05:53:41.763Z,33.60
2022-11-16T05:56:08.214Z,29.58
2022-11-16T05:58:34.754Z,29.23
2022-11-16T06:01:01.185Z,33.22
2022-11-16T06:03:30.643Z,26.30
2022-11-16T06:05:57.512Z,27.48
2022-11-16T06:08:24.080Z,27.77
2022-11-16T06:10:50.412Z,26.95
2022-11-16T06:13:16.638Z,29.48
2022-11-16T06:18:23.143Z,25.30
2022-11-16T06:20:49.655Z,26.10
2022-11-16T06:23:15.897Z,22.48
2022-11-16T06:25:42.366Z,28.30
2022-11-16T06:28:08.595Z,25.42
2022-11-16T06:30:35.075Z,30.13
2022-11-16T06:33:01.446Z,29.13
2022-11-16T06:35:27.668Z,33.15
2022-11-16T06:37:53.896Z,33.47
2022-11-16T06:40:20.138Z,36.88
2022-11-16T06:42:46.346Z,36.38
2022-11-16T06:45:12.829Z,26.88
2022-11-16T06:47:39.085Z,28.10
2022-11-16T06:50:05.497Z,28.52
2022-11-16T06:52:32.049Z,24.85
2022-11-16T06:54:58.379Z,21.50
2022-11-16T06:57:24.625Z,21.02
2022-11-16T06:59:50.877Z,24.52
2022-11-16T07:02:17.094Z,28.75
2022-11-16T07:04:44.311Z,28.63
2022-11-16T07:07:10.566Z,42.88
2022-11-16T07:09:36.915Z,35.35
2022-11-16T07:12:04.056Z,43.13
2022-11-16T07:14:30.286Z,25.50
2022-11-16T07:16:59.870Z,24.80
2022-11-16T07:19:28.158Z,24.42
2022-11-16T07:21:54.408Z,21.42
2022-11-16T07:24:20.642Z,27.50
2022-11-16T07:26:46.911Z,30.13
2022-11-16T07:29:13.831Z,24.25
2022-11-16T07:34:06.228Z,21.73
2022-11-16T07:36:32.455Z,22.65
2022-11-16T07:38:58.676Z,19.50
2022-11-16T07:41:25.030Z,14.48
2022-11-16T07:43:53.419Z,12.15
2022-11-16T07:49:11.196Z,18.05
2022-11-16T07:51:37.784Z,20.92
2022-11-16T07:54:04.011Z,21.73
2022-11-16T07:56:30.424Z,23.30
2022-11-16T07:58:56.879Z,25.48
2022-11-16T08:01:23.193Z,29.45
2022-11-16T08:03:52.422Z,26.58
2022-11-16T08:06:20.923Z,19.55
2022-11-16T08:08:47.138Z,20.50
2022-11-16T08:11:13.395Z,22.58
2022-11-16T08:13:40.796Z,14.32
2022-11-16T08:16:09.301Z,23.02
2022-11-16T08:18:36.774Z,30.65
2022-11-16T08:21:04.050Z,18.13
2022-11-16T08:23:30.973Z,16.33
2022-11-16T08:28:23.442Z,40.58
2022-11-16T08:30:53.871Z,48.33
2022-11-16T08:33:21.422Z,67.32
2022-11-16T08:35:50.985Z,48.55
2022-11-16T08:38:18.534Z,26.00
2022-11-16T08:40:45.160Z,15.18
2022-11-16T08:43:11.689Z,11.80
2022-11-16T08:45:38.922Z,10.10
2022-11-16T08:48:05.768Z,9.38
2022-11-16T08:50:44.154Z,11.80
2022-11-16T08:53:18.501Z,15.48
2022-11-16T08:55:44.754Z,12.75
2022-11-16T08:58:11.282Z,12.63
2022-11-16T09:00:37.762Z,7.22
2022-11-16T09:03:03.988Z,11.20
2022-11-16T09:05:30.204Z,9.40
2022-11-16T09:07:56.500Z,8.43
2022-11-16T09:10:25.840Z,8.52
2022-11-16T09:12:52.399Z,10.85
2022-11-16T09:15:19.313Z,10.18
2022-11-16T09:20:11.789Z,15.13
2022-11-16T09:22:38.025Z,14.55
2022-11-16T09:25:04.704Z,10.45
2022-11-16T09:27:30.961Z,10.07
2022-11-16T09:29:57.219Z,11.07
2022-11-16T09:32:23.533Z,9.82
2022-11-16T09:34:50.021Z,8.30
2022-11-16T09:37:16.348Z,8.93
2022-11-16T09:39:42.626Z,6.80
2022-11-16T09:42:29.444Z,6.13
2022-11-16T09:45:08.279Z,13.43
2022-11-16T09:47:40.237Z,11.55
2022-11-16T09:50:08.264Z,10.50
2022-11-16T09:52:36.709Z,6.57
2022-11-16T09:55:19.991Z,10.15
2022-11-16T09:57:47.100Z,7.80
2022-11-16T10:00:19.439Z,12.27
2022-11-16T10:02:52.471Z,8.75
2022-11-16T10:05:25.834Z,7.97
2022-11-16T10:07:59.040Z,8.50
2022-11-16T10:10:28.177Z,10.45
2022-11-16T10:12:54.388Z,6.72
2022-11-16T10:15:20.655Z,9.30
2022-11-16T10:17:46.914Z,6.32
2022-11-16T10:20:16.194Z,9.10
2022-11-16T10:23:00.883Z,10.13
2022-11-16T10:25:37.316Z,8.55
2022-11-16T10:28:22.515Z,10.80
2022-11-16T10:30:54.476Z,10.80
2022-11-16T10:33:22.011Z,5.47
2022-11-16T10:35:53.535Z,10.52
2022-11-16T10:38:24.995Z,6.82
2022-11-16T10:40:56.215Z,6.63
2022-11-16T10:43:28.203Z,8.90
2022-11-16T10:46:02.783Z,9.27
2022-11-16T10:48:29.222Z,5.90
2022-11-16T10:50:55.805Z,8.10
2022-11-16T10:53:31.886Z,7.60
2022-11-16T10:56:20.312Z,7.72
2022-11-16T10:58:49.797Z,4.80
2022-11-16T11:01:39.500Z,7.88
2022-11-16T11:04:25.357Z,7.72
2022-11-16T11:06:51.683Z,5.80
2022-11-16T11:09:37.722Z,6.95
2022-11-16T11:12:36.199Z,5.32
2022-11-16T11:17:29.857Z,12.02
2022-11-16T11:20:00.036Z,6.93
2022-11-16T11:22:26.675Z,5.70
2022-11-16T11:24:53.279Z,11.05
2022-11-16T11:27:28.716Z,15.15
2022-11-16T11:29:58.516Z,5.20
2022-11-16T11:32:28.486Z,5.90
2022-11-16T11:34:56.055Z,7.93
2022-11-16T11:37:24.232Z,8.65
2022-11-16T11:40:04.053Z,11.55
2022-11-16T11:42:30.523Z,7.53
2022-11-16T11:44:58.654Z,5.80
2022-11-16T11:47:57.418Z,5.78
2022-11-16T11:50:19.176Z,9.32
2022-11-16T11:53:04.011Z,8.93
2022-11-16T11:55:30.627Z,10.15
2022-11-16T11:57:57.448Z,11.48
2022-11-16T12:03:14.958Z,16.83
2022-11-16T12:05:41.192Z,9.43
2022-11-16T12:08:25.744Z,4.97
2022-11-16T12:10:53.641Z,5.13
2022-11-16T12:13:43.106Z,6.78
2022-11-16T12:16:15.522Z,4.05
2022-11-16T12:18:47.732Z,6.25
2022-11-16T12:21:16.654Z,4.45
2022-11-16T12:23:51.884Z,8.57
2022-11-16T12:26:24.234Z,7.22
2022-11-16T12:29:07.599Z,8.88
2022-11-16T12:31:54.111Z,3.53
2022-11-16T12:34:20.307Z,5.28
2022-11-16T12:36:51.448Z,7.68
2022-11-16T12:39:24.048Z,6.20
2022-11-16T12:41:57.898Z,7.80
2022-11-16T12:44:44.359Z,4.65
2022-11-16T12:47:30.157Z,5.78
2022-11-16T12:49:59.404Z,5.68
2022-11-16T12:52:45.316Z,4.50
2022-11-16T12:55:28.127Z,4.07
2022-11-16T12:58:01.728Z,2.85
2022-11-16T13:00:28.668Z,4.63
2022-11-16T13:05:39.416Z,4.65
2022-11-16T13:08:12.367Z,12.13
2022-11-16T13:10:42.902Z,4.10
2022-11-16T13:13:35.493Z,8.02
2022-11-16T13:16:01.993Z,5.00
2022-11-16T13:18:28.716Z,8.95
2022-11-16T13:21:13.775Z,7.47
2022-11-16T13:23:45.937Z,5.57
2022-11-16T13:26:12.153Z,8.52
2022-11-16T13:28:53.911Z,5.82
2022-11-16T13:31:20.350Z,5.95
2022-11-16T13:33:51.221Z,16.30
2022-11-16T13:36:40.402Z,7.43
2022-11-16T13:39:08.175Z,4.72
2022-11-16T13:41:36.091Z,8.77
2022-11-16T13:44:03.265Z,4.82
2022-11-16T13:49:23.851Z,11.57
2022-11-16T13:51:51.651Z,7.28
2022-11-16T13:54:56.481Z,13.10
2022-11-16T13:57:21.388Z,7.57
2022-11-16T13:59:48.930Z,10.60
2022-11-16T14:02:33.799Z,5.93
2022-11-16T14:05:04.837Z,4.95
2022-11-16T14:07:35.920Z,10.63
2022-11-16T14:10:05.516Z,5.97
2022-11-16T14:12:38.055Z,6.25
2022-11-16T14:15:15.617Z,12.77
2022-11-16T14:20:12.236Z,9.75
2022-11-16T14:22:47.083Z,7.93
2022-11-16T14:25:28.326Z,12.55
2022-11-16T14:27:57.373Z,6.28
2022-11-16T14:30:47.008Z,13.15
2022-11-16T14:33:13.916Z,9.05
2022-11-16T14:38:07.635Z,7.95
2022-11-16T14:40:41.421Z,13.07
2022-11-16T14:43:18.650Z,5.40
2022-11-16T14:45:48.015Z,8.50
2022-11-16T14:48:18.757Z,22.15
2022-11-16T14:50:47.734Z,6.53
2022-11-16T14:53:16.355Z,8.60
2022-11-16T14:55:43.278Z,10.82
2022-11-16T15:00:36.275Z,12.30
2022-11-16T15:03:03.273Z,12.88
2022-11-16T15:07:57.880Z,11.02
2022-11-16T15:10:25.146Z,8.43
2022-11-16T15:12:52.646Z,16.48
2022-11-16T15:15:22.140Z,19.40
2022-11-16T15:17:53.234Z,15.57
2022-11-16T15:20:23.930Z,10.98
2022-11-16T15:22:54.704Z,7.30
2022-11-16T15:25:27.019Z,9.40
2022-11-16T15:27:53.755Z,9.95
2022-11-16T15:30:20.879Z,11.98
2022-11-16T15:32:48.063Z,11.57
2022-11-16T15:35:21.852Z,18.77
2022-11-16T15:37:48.341Z,21.67
2022-11-16T15:40:14.822Z,13.80
2022-11-16T15:42:41.364Z,12.55
2022-11-16T15:45:22.186Z,15.57
2022-11-16T15:47:50.068Z,7.43
2022-11-16T15:50:18.141Z,12.23
2022-11-16T15:52:50.083Z,13.38
2022-11-16T15:55:24.160Z,14.98
2022-11-16T15:58:00.816Z,10.80
2022-11-16T16:00:27.802Z,14.17
2022-11-16T16:05:31.895Z,18.30
2022-11-16T16:07:59.506Z,13.02
2022-11-16T16:10:26.565Z,19.00
2022-11-16T16:12:53.801Z,6.68
2022-11-16T16:15:27.321Z,10.38
2022-11-16T16:17:53.831Z,11.57
2022-11-16T16:20:20.922Z,22.75
2022-11-16T16:22:47.429Z,17.45
2022-11-16T16:25:33.306Z,21.83
2022-11-16T16:27:59.681Z,13.40
2022-11-16T16:30:27.736Z,9.55
2022-11-16T16:32:54.006Z,6.88
2022-11-16T16:35:21.732Z,10.25
2022-11-16T16:37:48.516Z,5.75
2022-11-16T16:40:14.869Z,7.38
2022-11-16T16:42:42.833Z,13.95
2022-11-16T16:45:13.991Z,13.25
2022-11-16T16:47:40.232Z,11.35
2022-11-16T16:50:06.630Z,8.88
2022-11-16T16:52:32.887Z,9.63
2022-11-16T16:54:59.140Z,10.57
2022-11-16T16:57:25.415Z,4.57
2022-11-16T16:59:51.658Z,7.30
2022-11-16T17:02:18.007Z,8.07
2022-11-16T17:04:46.538Z,7.72
2022-11-16T17:07:12.929Z,10.43
2022-11-16T17:09:39.184Z,11.35
2022-11-16T17:12:05.530Z,13.10
2022-11-16T17:14:31.737Z,9.10
2022-11-16T17:16:58.029Z,7.35
2022-11-16T17:19:24.271Z,11.85
2022-11-16T17:21:53.967Z,9.15
2022-11-16T17:24:20.371Z,12.02
2022-11-16T17:26:50.494Z,15.60
2022-11-16T17:29:16.984Z,15.23
2022-11-16T17:31:44.707Z,17.17
2022-11-16T17:34:13.697Z,10.25
2022-11-16T17:36:40.737Z,12.93
2022-11-16T17:39:06.975Z,8.65
2022-11-16T17:41:33.274Z,5.65
2022-11-16T17:43:59.614Z,12.88
2022-11-16T17:46:26.110Z,12.10
2022-11-16T17:48:52.508Z,7.57
2022-11-16T17:51:20.110Z,13.73
2022-11-16T17:53:46.820Z,12.90
2022-11-16T17:56:17.304Z,10.40
2022-11-16T17:58:45.111Z,13.63
2022-11-16T18:01:11.809Z,16.02
2022-11-16T18:03:38.738Z,14.23
2022-11-16T18:06:09.283Z,14.32
2022-11-16T18:08:36.438Z,11.32
2022-11-16T18:11:22.994Z,9.85
2022-11-16T18:13:53.372Z,10.75
2022-11-16T18:16:21.110Z,10.63
2022-11-16T18:18:47.779Z,7.97
2022-11-16T18:21:20.361Z,10.38
2022-11-16T18:23:47.115Z,6.20
2022-11-16T18:26:14.735Z,8.52
2022-11-16T18:28:41.240Z,11.48
2022-11-16T18:31:09.646Z,7.18
2022-11-16T18:33:36.879Z,9.45
2022-11-16T18:36:04.179Z,8.60
2022-11-16T18:38:30.482Z,8.13
2022-11-16T18:41:02.829Z,14.77
2022-11-16T18:43:29.075Z,10.55
2022-11-16T18:45:55.285Z,7.68
2022-11-16T18:48:21.499Z,18.35
2022-11-16T18:50:47.752Z,12.48
2022-11-16T18:53:13.991Z,11.27
2022-11-16T18:55:40.264Z,7.35
2022-11-16T18:58:22.482Z,9.82
2022-11-16T19:00:52.806Z,21.45
2022-11-16T19:03:19.351Z,15.98
2022-11-16T19:05:45.746Z,6.35
2022-11-16T19:08:12.076Z,5.95
2022-11-16T19:10:38.706Z,7.75
2022-11-16T19:13:05.578Z,7.93
2022-11-16T19:15:32.723Z,12.13
2022-11-16T19:18:19.878Z,12.68
2022-11-16T19:20:45.349Z,5.25
2022-11-16T19:23:11.577Z,10.50
2022-11-16T19:25:37.864Z,7.15
2022-11-16T19:28:04.895Z,6.75
2022-11-16T19:32:58.026Z,8.95
2022-11-16T19:37:50.674Z,15.68
2022-11-16T19:40:19.799Z,10.50
2022-11-16T19:42:52.203Z,8.73
2022-11-16T19:45:18.486Z,31.42
2022-11-16T19:47:44.777Z,22.05
2022-11-16T19:50:11.799Z,31.52
2022-11-16T19:55:04.468Z,23.13
2022-11-16T19:57:30.708Z,18.90
2022-11-16T19:59:56.982Z,10.82
2022-11-16T20:02:23.283Z,19.52
2022-11-16T20:04:49.511Z,14.48
2022-11-16T20:07:18.110Z,13.93
2022-11-16T20:09:46.350Z,15.52
2022-11-16T20:12:15.563Z,11.48
2022-11-16T20:14:42.319Z,16.25
2022-11-16T20:17:08.727Z,16.65
2022-11-16T20:19:35.077Z,15.63
2022-11-16T20:22:01.357Z,14.85
2022-11-16T20:24:27.594Z,15.90
2022-11-16T20:26:53.865Z,20.95
2022-11-16T20:29:20.291Z,27.33
2022-11-16T20:31:46.797Z,25.83
2022-11-16T20:34:14.578Z,27.33
2022-11-16T20:36:42.470Z,22.00
2022-11-16T20:39:08.952Z,26.90
2022-11-16T20:41:35.175Z,23.63
2022-11-16T20:44:02.475Z,14.45
2022-11-16T20:46:29.832Z,13.95
2022-11-16T20:48:57.074Z,30.73
2022-11-16T20:51:23.508Z,22.60
2022-11-16T20:53:49.835Z,45.55
2022-11-16T20:56:16.918Z,34.60
2022-11-16T20:58:43.158Z,105.88
2022-11-16T21:01:13.566Z,46.92
2022-11-16T21:03:40.264Z,28.05
2022-11-16T21:06:09.623Z,28.83
2022-11-16T21:08:36.599Z,27.48
2022-11-16T21:13:47.627Z,24.58
2022-11-16T21:16:15.398Z,30.27
2022-11-16T21:18:41.694Z,126.50
2022-11-16T21:21:09.096Z,58.28
2022-11-16T21:23:36.441Z,21.67
2022-11-16T21:26:03.739Z,28.23
2022-11-16T21:28:30.214Z,17.48
2022-11-16T21:31:22.989Z,28.05
2022-11-16T21:33:49.526Z,12.32
2022-11-16T21:36:16.852Z,21.77
2022-11-16T21:38:43.415Z,16.75
2022-11-16T21:41:10.751Z,19.92
2022-11-16T21:43:37.596Z,20.55
2022-11-16T21:48:36.597Z,21.83
2022-11-16T21:51:04.396Z,19.50
2022-11-16T21:53:30.728Z,20.73
2022-11-16T21:55:57.423Z,20.83
2022-11-16T21:58:23.802Z,24.80
2022-11-16T22:00:50.116Z,12.55
2022-11-16T22:03:16.366Z,9.23
2022-11-16T22:06:01.345Z,10.95
2022-11-16T22:08:27.589Z,7.60
2022-11-16T22:10:53.998Z,11.80
2022-11-16T22:13:20.235Z,9.52
2022-11-16T22:15:46.572Z,6.18
2022-11-16T22:18:13.461Z,14.40
2022-11-16T22:23:05.873Z,12.52
2022-11-16T22:25:32.298Z,7.70
2022-11-16T22:28:19.653Z,10.52
2022-11-16T22:30:48.710Z,8.98
2022-11-16T22:33:17.853Z,11.82
2022-11-16T22:35:46.378Z,7.03
2022-11-16T22:38:12.648Z,7.38
2022-11-16T22:40:38.888Z,7.25
2022-11-16T22:43:05.148Z,5.97
2022-11-16T22:45:31.371Z,8.68
2022-11-16T22:47:57.885Z,7.97
2022-11-16T22:50:24.119Z,12.02
2022-11-16T22:52:50.410Z,7.18
2022-11-16T22:55:16.681Z,8.88
2022-11-16T22:57:42.915Z,11.27
2022-11-16T23:00:09.921Z,12.50
2022-11-16T23:05:02.382Z,24.90
2022-11-16T23:07:28.638Z,23.45
2022-11-16T23:09:54.907Z,23.40
2022-11-16T23:12:39.766Z,21.85
2022-11-16T23:15:27.396Z,19.38
2022-11-16T23:17:53.626Z,19.90
2022-11-16T23:20:38.493Z,16.05
2022-11-16T23:23:23.296Z,12.57
2022-11-16T23:26:08.068Z,12.25
2022-11-16T23:28:34.580Z,15.13
2022-11-16T23:31:00.779Z,9.38
2022-11-16T23:33:43.689Z,40.38
2022-11-16T23:36:13.535Z,14.10
2022-11-16T23:38:39.877Z,12.77
2022-11-16T23:41:24.895Z,17.65
2022-11-16T23:44:00.069Z,11.13
2022-11-16T23:46:30.667Z,6.63
2022-11-16T23:48:57.340Z,6.88
2022-11-16T23:51:23.788Z,10.25
2022-11-16T23:53:53.777Z,8.55
2022-11-16T23:56:20.787Z,7.03
